Time;durP1;ratioP1;P1;durP2;ratioP2;P2;SDS_P1;SDS_P2;PMS_P1;PMS_P2;Temp;Humidity;BMP_temperature;BMP_pressure;BME280_temperature;BME280_humidity;BME280_pressure;Samples;Min_cycle;Max_cycle;Signal;HPM_P1;HPM_P2
2021/05/06 00:09:38;;;;;;;18.35;5.80;;;5.30;99.90;;;;;;4904259;29;20412;-67
2021/05/06 00:31:57;;;;;;;14.13;3.70;;;5.10;99.90;;;;;;5000447;28;20249;-67
2021/05/06 00:34:24;;;;;;;12.13;3.53;;;5.10;99.90;;;;;;4987291;28;20205;-69
2021/05/06 00:36:52;;;;;;;10.73;3.90;;;5.10;99.90;;;;;;4999266;28;20246;-69
2021/05/06 00:39:22;;;;;;;8.65;4.15;;;5.00;99.90;;;;;;4995464;28;20213;-67
2021/05/06 00:42:02;;;;;;;10.95;3.30;;;5.00;99.90;;;;;;5004031;28;20205;-69
2021/05/06 00:55:48;;;;;;;10.95;4.53;;;5.00;99.90;;;;;;4992233;28;20693;-67
2021/05/06 00:58:34;;;;;;;12.20;3.20;;;5.00;99.90;;;;;;4987285;28;20245;-68
2021/05/06 01:01:15;;;;;;;15.35;3.72;;;5.00;99.90;;;;;;4995612;28;20611;-69
2021/05/06 01:03:55;;;;;;;12.45;3.72;;;5.00;99.90;;;;;;4988890;28;20551;-69
2021/05/06 01:06:24;;;;;;;11.32;3.33;;;5.00;99.90;;;;;;4983617;28;20299;-68
2021/05/06 01:08:54;;;;;;;11.40;4.10;;;5.00;99.90;;;;;;5005913;28;20242;-69
2021/05/06 01:11:27;;;;;;;9.40;3.90;;;5.00;99.90;;;;;;4986581;28;20202;-68
2021/05/06 01:13:53;;;;;;;10.27;4.03;;;5.00;99.90;;;;;;4994658;28;20225;-67
2021/05/06 01:16:20;;;;;;;12.93;4.80;;;5.00;99.90;;;;;;4995714;28;20315;-67
2021/05/06 01:18:47;;;;;;;16.27;5.28;;;5.00;99.90;;;;;;5005795;28;20205;-67
2021/05/06 01:21:14;;;;;;;15.60;4.70;;;5.00;99.90;;;;;;4996060;28;20229;-67
2021/05/06 01:23:44;;;;;;;9.45;3.25;;;5.00;99.90;;;;;;4994109;28;20270;-67
2021/05/06 01:26:13;;;;;;;6.50;3.90;;;5.00;99.90;;;;;;5004571;28;20304;-68
2021/05/06 01:28:42;;;;;;;9.65;3.47;;;5.00;99.90;;;;;;5005348;28;20296;-67
2021/05/06 01:31:12;;;;;;;12.25;3.55;;;5.00;99.90;;;;;;4999444;28;20252;-68
2021/05/06 01:33:41;;;;;;;9.82;3.60;;;5.00;99.90;;;;;;4993796;28;20206;-67
2021/05/06 01:36:13;;;;;;;7.22;2.80;;;5.00;99.90;;;;;;4996143;28;20229;-68
2021/05/06 01:38:54;;;;;;;9.40;3.40;;;5.00;99.90;;;;;;5007508;28;20228;-68
2021/05/06 01:44:09;;;;;;;8.88;2.80;;;5.00;99.90;;;;;;5001559;28;20204;-67
2021/05/06 01:47:06;;;;;;;9.10;3.22;;;5.00;99.90;;;;;;4994043;28;20715;-67
2021/05/06 02:00:54;;;;;;;18.65;3.95;;;5.00;99.90;;;;;;4971702;28;20204;-68
2021/05/06 02:03:20;;;;;;;11.73;4.15;;;5.00;99.90;;;;;;4988189;28;20243;-68
2021/05/06 02:05:47;;;;;;;12.32;3.80;;;5.00;99.90;;;;;;4990223;28;20232;-67
2021/05/06 02:08:14;;;;;;;7.43;5.75;;;5.00;99.90;;;;;;5004244;28;20243;-67
2021/05/06 02:10:41;;;;;;;17.73;4.75;;;5.00;99.90;;;;;;5002196;28;20236;-67
2021/05/06 02:13:08;;;;;;;12.27;4.80;;;5.00;99.90;;;;;;4994151;28;20221;-67
2021/05/06 02:15:37;;;;;;;8.18;4.18;;;5.00;99.90;;;;;;4997173;28;20231;-69
2021/05/06 02:18:04;;;;;;;14.07;4.38;;;4.90;99.90;;;;;;5002906;28;20275;-68
2021/05/06 02:20:31;;;;;;;16.05;5.10;;;4.90;99.90;;;;;;4999043;28;20279;-67
2021/05/06 02:22:57;;;;;;;7.80;4.55;;;4.90;99.90;;;;;;4990628;28;20198;-68
2021/05/06 02:25:24;;;;;;;12.95;4.07;;;4.90;99.90;;;;;;4994086;28;20265;-67
2021/05/06 02:27:52;;;;;;;10.95;3.28;;;4.90;99.90;;;;;;5004548;28;20219;-68
2021/05/06 02:30:19;;;;;;;11.48;5.40;;;4.90;99.90;;;;;;4993363;28;20286;-68
2021/05/06 02:32:46;;;;;;;16.15;5.50;;;4.90;99.90;;;;;;4993141;28;20244;-68
2021/05/06 02:35:14;;;;;;;17.33;4.97;;;5.00;99.90;;;;;;4988491;28;21017;-66
2021/05/06 02:37:41;;;;;;;9.23;4.05;;;4.90;99.90;;;;;;4998123;28;20213;-67
2021/05/06 02:40:10;;;;;;;10.60;3.45;;;5.00;99.90;;;;;;4994315;28;20558;-67
2021/05/06 02:42:37;;;;;;;13.10;4.25;;;5.00;99.90;;;;;;4993592;28;20201;-67
2021/05/06 02:45:05;;;;;;;13.48;4.60;;;5.00;99.90;;;;;;4991404;28;20225;-67
2021/05/06 02:47:32;;;;;;;9.45;3.40;;;5.00;99.90;;;;;;4998040;28;20328;-66
2021/05/06 02:49:59;;;;;;;7.03;3.40;;;5.00;99.90;;;;;;4994107;28;20256;-68
2021/05/06 02:52:30;;;;;;;14.30;4.80;;;5.00;99.90;;;;;;4989804;28;20635;-66
2021/05/06 02:55:05;;;;;;;10.85;4.05;;;5.00;99.90;;;;;;4994459;28;20228;-67
2021/05/06 02:57:38;;;;;;;12.43;4.20;;;5.00;99.90;;;;;;4998513;28;20238;-66
2021/05/06 03:02:54;;;;;;;10.55;3.85;;;5.00;99.90;;;;;;5004004;28;20650;-67
2021/05/06 03:05:22;;;;;;;10.98;4.78;;;5.10;99.90;;;;;;5001435;28;20649;-67
2021/05/06 03:07:57;;;;;;;9.45;3.50;;;5.00;99.90;;;;;;4996499;28;20264;-67
2021/05/06 03:10:37;;;;;;;11.60;4.03;;;5.10;99.90;;;;;;4989325;28;20220;-67
2021/05/06 03:21:37;;;;;;;7.72;3.55;;;5.00;99.90;;;;;;5001600;28;20208;-66
2021/05/06 03:24:05;;;;;;;9.00;3.60;;;5.00;99.90;;;;;;4991917;28;20205;-66
2021/05/06 03:26:33;;;;;;;7.43;4.05;;;5.00;99.90;;;;;;4996720;28;20248;-67
2021/05/06 03:29:02;;;;;;;11.98;3.20;;;4.90;99.90;;;;;;4991307;28;20202;-66
2021/05/06 03:42:42;;;;;;;10.65;4.65;;;4.80;99.90;;;;;;4991611;28;20203;-67
2021/05/06 03:45:25;;;;;;;12.07;5.07;;;4.80;99.90;;;;;;4997340;28;20225;-65
2021/05/06 04:18:05;;;;;;;5.95;5.15;;;5.10;99.90;;;;;;4998970;28;20193;-67
2021/05/06 04:26:20;;;;;;;12.07;5.63;;;5.20;99.90;;;;;;4995232;28;20360;-67
2021/05/06 04:36:58;;;;;;;8.95;4.88;;;5.40;99.90;;;;;;5003254;28;20231;-67
2021/05/06 04:45:27;;;;;;;8.60;4.70;;;5.70;99.90;;;;;;4971305;28;20200;-68
2021/05/06 04:56:02;;;;;;;7.28;4.85;;;7.20;99.90;;;;;;4991496;28;20359;-67
2021/05/06 05:03:59;;;;;;;7.25;4.97;;;8.90;99.90;;;;;;5001118;28;20710;-68
2021/05/06 05:06:28;;;;;;;8.27;3.88;;;9.40;99.90;;;;;;4992671;28;20221;-68
2021/05/06 05:09:04;;;;;;;7.47;5.03;;;10.00;99.90;;;;;;4993894;28;20204;-67
2021/05/06 05:11:42;;;;;;;10.60;4.68;;;10.40;99.70;;;;;;4998233;28;20244;-67
2021/05/06 05:19:55;;;;;;;7.00;3.78;;;10.60;97.90;;;;;;4996119;28;20200;-67
2021/05/06 05:25:09;;;;;;;5.97;3.58;;;11.30;95.60;;;;;;4993767;28;20219;-68
2021/05/06 05:27:36;;;;;;;10.50;3.80;;;11.70;95.20;;;;;;4991586;28;20213;-67
2021/05/06 05:30:03;;;;;;;6.45;3.25;;;11.50;94.80;;;;;;4989079;28;20233;-68
2021/05/06 05:32:30;;;;;;;6.50;3.10;;;11.90;94.80;;;;;;4987343;28;20284;-69
2021/05/06 05:34:59;;;;;;;8.10;3.20;;;12.30;94.20;;;;;;4995311;28;20238;-69
2021/05/06 05:37:30;;;;;;;5.65;3.28;;;12.40;93.30;;;;;;4994327;28;20284;-69
2021/05/06 05:40:06;;;;;;;4.30;3.55;;;12.20;92.90;;;;;;4989274;28;20197;-69
2021/05/06 05:42:44;;;;;;;10.35;3.63;;;12.20;93.20;;;;;;4979654;28;20209;-69
2021/05/06 05:45:45;;;;;;;4.65;3.20;;;12.80;92.60;;;;;;4974007;28;20313;-69
2021/05/06 05:56:31;;;;;;;4.80;4.28;;;12.50;91.60;;;;;;4980085;28;20237;-68
2021/05/06 05:58:59;;;;;;;6.28;3.92;;;12.50;92.30;;;;;;5000412;28;20653;-68
2021/05/06 06:01:27;;;;;;;5.07;3.40;;;12.30;92.30;;;;;;4993168;28;20206;-70
2021/05/06 06:03:54;;;;;;;4.03;3.13;;;12.70;92.40;;;;;;4999561;28;20199;-69
2021/05/06 06:06:20;;;;;;;4.10;2.95;;;13.10;91.10;;;;;;4985172;28;20593;-70
2021/05/06 06:08:48;;;;;;;6.10;2.50;;;13.40;91.50;;;;;;4993059;28;20201;-69
2021/05/06 06:11:15;;;;;;;5.55;3.20;;;14.20;90.00;;;;;;4994747;28;20260;-70
2021/05/06 06:13:44;;;;;;;6.05;3.00;;;14.00;87.90;;;;;;5001329;28;20311;-70
2021/05/06 06:16:18;;;;;;;5.00;2.83;;;14.10;88.00;;;;;;4985117;28;20217;-70
2021/05/06 06:18:47;;;;;;;5.32;3.05;;;13.80;87.30;;;;;;4983379;28;20286;-70
2021/05/06 06:21:18;;;;;;;3.78;2.40;;;14.40;87.90;;;;;;4983108;28;20604;-71
2021/05/06 06:23:45;;;;;;;4.40;3.03;;;14.80;86.80;;;;;;4992413;28;20268;-69
2021/05/06 06:26:12;;;;;;;5.45;3.47;;;15.00;85.10;;;;;;4991570;28;20217;-69
2021/05/06 06:28:40;;;;;;;10.25;4.60;;;15.30;86.20;;;;;;4988714;28;20209;-68
2021/05/06 06:31:13;;;;;;;4.85;2.75;;;16.20;83.60;;;;;;4996963;28;20198;-68
2021/05/06 06:33:41;;;;;;;4.70;3.47;;;15.90;82.00;;;;;;4986822;28;20637;-69
2021/05/06 06:36:08;;;;;;;4.45;4.00;;;15.60;83.60;;;;;;4990850;28;20225;-69
2021/05/06 06:38:35;;;;;;;6.63;2.85;;;15.30;82.90;;;;;;4992134;28;20236;-69
2021/05/06 06:41:03;;;;;;;7.28;3.90;;;15.20;84.00;;;;;;4992634;28;20198;-70
2021/05/06 06:43:30;;;;;;;8.02;3.30;;;15.10;83.70;;;;;;4993405;28;20224;-69
2021/05/06 06:45:57;;;;;;;5.90;3.42;;;15.60;83.70;;;;;;4984448;28;20230;-69
2021/05/06 06:48:24;;;;;;;4.15;3.33;;;15.10;83.10;;;;;;5000877;28;20209;-70
2021/05/06 06:50:52;;;;;;;4.22;3.30;;;14.20;83.10;;;;;;4997414;28;20201;-69
2021/05/06 06:53:18;;;;;;;6.70;3.97;;;14.60;86.10;;;;;;4993144;28;20213;-69
2021/05/06 06:55:45;;;;;;;6.35;2.92;;;14.90;85.30;;;;;;4989628;28;20241;-69
2021/05/06 06:58:13;;;;;;;5.85;3.70;;;15.30;84.90;;;;;;4992719;28;20205;-68
2021/05/06 07:00:40;;;;;;;5.20;3.80;;;15.00;83.90;;;;;;4993290;28;20522;-70
2021/05/06 07:03:07;;;;;;;8.73;4.10;;;14.80;84.30;;;;;;4991264;28;20229;-69
2021/05/06 07:05:35;;;;;;;4.75;3.50;;;14.60;85.00;;;;;;4987225;28;20229;-69
2021/05/06 07:08:16;;;;;;;6.45;4.72;;;14.50;85.50;;;;;;4989487;28;20223;-68
2021/05/06 07:10:45;;;;;;;4.95;4.00;;;14.70;86.40;;;;;;4992157;28;20284;-67
2021/05/06 07:13:12;;;;;;;4.10;3.05;;;14.80;85.10;;;;;;4993619;28;20254;-69
2021/05/06 07:15:39;;;;;;;4.85;2.90;;;14.50;85.20;;;;;;4995166;28;20225;-68
2021/05/06 07:18:08;;;;;;;5.68;4.05;;;14.60;85.40;;;;;;4989903;28;20211;-69
2021/05/06 07:20:35;;;;;;;6.20;3.80;;;15.00;84.90;;;;;;4986830;28;20201;-70
2021/05/06 07:23:02;;;;;;;5.30;3.20;;;15.00;83.40;;;;;;4994146;28;20239;-70
2021/05/06 07:25:30;;;;;;;6.95;3.40;;;15.70;82.70;;;;;;4985435;28;20228;-69
2021/05/06 07:27:56;;;;;;;5.90;3.65;;;15.70;80.50;;;;;;4991543;28;20214;-70
2021/05/06 07:30:23;;;;;;;5.10;3.30;;;15.60;79.30;;;;;;4989635;28;20234;-69
2021/05/06 07:32:50;;;;;;;6.95;3.85;;;15.50;81.40;;;;;;4990206;28;20209;-69
2021/05/06 07:35:16;;;;;;;10.65;4.50;;;15.30;81.60;;;;;;4991482;28;20682;-69
2021/05/06 07:37:43;;;;;;;7.68;2.70;;;15.40;81.10;;;;;;4989120;28;20198;-68
2021/05/06 07:40:11;;;;;;;6.95;3.90;;;15.30;82.20;;;;;;4992281;28;20202;-68
2021/05/06 07:42:39;;;;;;;7.38;3.55;;;15.60;81.00;;;;;;4991861;28;20356;-70
2021/05/06 07:45:08;;;;;;;5.25;3.20;;;15.40;81.70;;;;;;4996033;28;20198;-70
2021/05/06 07:47:34;;;;;;;3.78;3.00;;;15.70;81.60;;;;;;5000084;28;20585;-68
2021/05/06 07:50:01;;;;;;;5.93;3.10;;;14.90;81.10;;;;;;4991454;28;20285;-69
2021/05/06 07:52:28;;;;;;;5.28;3.30;;;13.90;84.30;;;;;;4992208;28;20211;-70
2021/05/06 07:54:56;;;;;;;6.05;2.97;;;12.90;87.70;;;;;;4990697;28;20323;-69
2021/05/06 07:57:23;;;;;;;6.00;3.40;;;13.30;89.10;;;;;;5005888;28;20580;-70
2021/05/06 07:59:50;;;;;;;4.80;2.97;;;13.90;85.90;;;;;;4999237;28;20213;-69
2021/05/06 08:02:17;;;;;;;11.20;4.97;;;13.90;84.70;;;;;;4986335;28;20262;-71
2021/05/06 08:04:44;;;;;;;6.85;2.97;;;13.60;86.50;;;;;;4995630;28;20231;-70
2021/05/06 08:07:10;;;;;;;8.43;4.18;;;15.10;84.40;;;;;;5003652;28;20250;-70
2021/05/06 08:09:37;;;;;;;13.95;3.25;;;16.90;80.00;;;;;;4995654;28;20201;-70
2021/05/06 08:12:05;;;;;;;9.35;3.38;;;17.00;75.80;;;;;;4998824;28;20238;-70
2021/05/06 08:14:32;;;;;;;6.00;3.10;;;14.70;77.50;;;;;;4995684;28;20217;-70
2021/05/06 08:16:59;;;;;;;7.00;2.30;;;15.20;81.10;;;;;;4996046;28;20582;-71
2021/05/06 08:19:26;;;;;;;5.85;2.95;;;15.80;79.30;;;;;;4998970;28;20206;-70
2021/05/06 08:21:53;;;;;;;8.65;3.20;;;16.70;75.80;;;;;;4984965;28;20292;-70
2021/05/06 08:24:19;;;;;;;7.38;3.08;;;15.90;75.20;;;;;;4996441;28;20201;-69
2021/05/06 08:26:46;;;;;;;7.70;2.67;;;16.10;77.20;;;;;;4995026;28;20255;-69
2021/05/06 08:29:13;;;;;;;5.47;2.87;;;16.50;76.40;;;;;;4994998;28;20200;-70
2021/05/06 08:31:40;;;;;;;4.55;2.50;;;16.60;74.80;;;;;;4994548;28;20993;-69
2021/05/06 08:34:07;;;;;;;5.95;2.95;;;17.30;73.60;;;;;;4993658;28;20251;-69
2021/05/06 08:36:34;;;;;;;4.93;2.53;;;17.60;72.30;;;;;;4994536;28;20232;-70
2021/05/06 08:39:03;;;;;;;6.70;3.13;;;17.60;71.40;;;;;;4994181;28;20934;-70
2021/05/06 08:41:30;;;;;;;4.72;3.30;;;17.80;71.50;;;;;;4995007;28;20482;-70
2021/05/06 08:43:59;;;;;;;10.70;3.08;;;17.10;70.80;;;;;;4994079;28;20200;-69
2021/05/06 08:46:32;;;;;;;8.02;3.00;;;15.80;71.90;;;;;;4999433;28;20591;-69
2021/05/06 08:49:00;;;;;;;7.05;2.97;;;15.40;72.00;;;;;;4980543;28;20202;-71
2021/05/06 08:51:28;;;;;;;5.35;2.97;;;15.20;72.60;;;;;;4999737;28;20667;-71
2021/05/06 08:53:55;;;;;;;7.25;3.05;;;15.20;73.80;;;;;;4997427;28;20219;-71
2021/05/06 08:56:23;;;;;;;6.75;2.40;;;16.20;73.30;;;;;;4994522;28;20281;-69
2021/05/06 08:58:49;;;;;;;8.90;2.78;;;16.50;70.70;;;;;;4995953;28;20203;-71
2021/05/06 09:01:17;;;;;;;7.75;2.78;;;15.80;72.40;;;;;;4996469;28;20202;-70
2021/05/06 09:03:44;;;;;;;4.22;2.22;;;15.80;70.90;;;;;;4994596;28;20736;-70
2021/05/06 09:06:14;;;;;;;3.28;2.03;;;16.60;70.60;;;;;;4999905;28;20222;-71
2021/05/06 09:08:43;;;;;;;4.60;1.90;;;16.60;66.90;;;;;;4988443;28;20245;-71
2021/05/06 09:11:10;;;;;;;6.47;3.13;;;16.70;67.80;;;;;;4988910;28;20199;-70
2021/05/06 09:13:37;;;;;;;4.70;2.88;;;16.50;69.20;;;;;;4987498;28;20662;-70
2021/05/06 09:16:05;;;;;;;6.03;2.67;;;16.10;69.30;;;;;;4997680;28;20577;-70
2021/05/06 09:18:38;;;;;;;3.72;2.15;;;15.70;69.40;;;;;;4991975;28;20668;-71
2021/05/06 09:21:06;;;;;;;4.72;2.65;;;16.50;68.70;;;;;;4985351;28;20623;-71
2021/05/06 09:23:33;;;;;;;3.00;1.90;;;16.00;68.20;;;;;;4988725;28;20688;-70
2021/05/06 09:26:05;;;;;;;5.15;2.25;;;15.40;68.20;;;;;;4991933;28;20225;-70
2021/05/06 09:28:33;;;;;;;5.13;1.63;;;15.10;68.30;;;;;;4988493;28;20213;-72
2021/05/06 09:31:01;;;;;;;7.70;2.22;;;15.50;67.80;;;;;;4991686;28;20755;-69
2021/05/06 09:33:30;;;;;;;6.32;3.05;;;15.40;67.90;;;;;;5004603;28;20268;-70
2021/05/06 09:35:57;;;;;;;5.80;1.83;;;15.70;68.70;;;;;;4991080;28;20218;-70
2021/05/06 09:38:33;;;;;;;4.38;1.60;;;16.00;67.10;;;;;;4991728;28;20206;-70
2021/05/06 09:41:02;;;;;;;4.65;2.47;;;16.70;64.80;;;;;;5004309;28;20348;-72
2021/05/06 09:43:31;;;;;;;2.07;1.40;;;17.20;63.80;;;;;;5001376;28;20193;-70
2021/05/06 09:45:59;;;;;;;3.37;1.93;;;17.60;61.40;;;;;;4999391;28;20495;-69
2021/05/06 09:48:25;;;;;;;5.10;1.77;;;18.40;61.00;;;;;;5004346;28;20503;-71
2021/05/06 09:50:59;;;;;;;3.30;1.47;;;18.50;58.80;;;;;;5002973;28;20429;-71
2021/05/06 09:53:29;;;;;;;3.73;1.13;;;18.10;56.20;;;;;;5004388;28;20476;-70
2021/05/06 09:55:57;;;;;;;3.23;1.73;;;18.10;56.40;;;;;;5012549;28;20742;-69
2021/05/06 09:58:26;;;;;;;2.70;1.40;;;18.70;55.50;;;;;;5004583;28;20447;-70
2021/05/06 10:00:54;;;;;;;5.30;1.73;;;18.60;53.10;;;;;;4998688;28;20496;-69
2021/05/06 10:03:22;;;;;;;5.43;1.53;;;18.60;54.90;;;;;;5004182;28;20440;-68
2021/05/06 10:05:51;;;;;;;4.23;1.40;;;18.30;53.90;;;;;;5001425;28;20471;-68
2021/05/06 10:08:19;;;;;;;1.80;1.23;;;18.60;54.00;;;;;;4996538;28;20610;-69
2021/05/06 10:10:45;;;;;;;2.50;1.60;;;18.60;54.90;;;;;;5003908;28;20448;-69
2021/05/06 10:13:12;;;;;;;6.17;1.30;;;18.40;55.00;;;;;;5000830;28;20480;-69
2021/05/06 10:15:40;;;;;;;2.47;1.67;;;18.30;54.20;;;;;;5010879;28;20463;-69
2021/05/06 10:18:08;;;;;;;3.63;1.47;;;18.50;54.60;;;;;;5015775;28;20454;-69
2021/05/06 10:20:35;;;;;;;5.37;1.47;;;17.90;55.00;;;;;;5009340;28;20563;-69
2021/05/06 10:23:04;;;;;;;4.20;1.30;;;17.20;54.90;;;;;;5016879;28;20436;-69
2021/05/06 10:25:31;;;;;;;1.83;1.10;;;15.60;56.40;;;;;;5016747;28;20279;-68
2021/05/06 10:27:58;;;;;;;3.90;1.50;;;14.40;58.60;;;;;;5005040;28;20255;-68
2021/05/06 10:30:25;;;;;;;2.15;1.35;;;13.70;61.30;;;;;;5005865;28;20243;-69
2021/05/06 10:32:52;;;;;;;2.42;1.70;;;13.50;62.90;;;;;;5006251;28;20319;-69
2021/05/06 10:35:22;;;;;;;3.97;1.60;;;14.30;63.70;;;;;;5006025;28;20213;-70
2021/05/06 10:37:58;;;;;;;3.05;1.65;;;14.60;60.40;;;;;;5006513;28;20190;-70
2021/05/06 10:40:32;;;;;;;3.05;1.73;;;14.00;62.00;;;;;;5000023;28;20267;-68
2021/05/06 10:43:18;;;;;;;7.15;1.55;;;13.70;62.00;;;;;;5002790;28;20368;-69
2021/05/06 10:45:56;;;;;;;4.55;1.80;;;14.00;62.30;;;;;;5000849;28;20221;-69
2021/05/06 10:48:23;;;;;;;3.17;1.20;;;14.50;62.10;;;;;;4998521;28;20257;-70
2021/05/06 10:50:52;;;;;;;4.60;1.50;;;15.10;60.80;;;;;;5003501;28;20240;-69
2021/05/06 10:53:27;;;;;;;2.83;1.60;;;15.20;60.80;;;;;;5008387;28;20224;-69
2021/05/06 10:55:55;;;;;;;6.55;2.22;;;15.00;60.10;;;;;;5004829;28;20295;-69
2021/05/06 10:58:39;;;;;;;3.88;1.85;;;14.60;60.50;;;;;;5002228;28;20208;-69
2021/05/06 11:01:23;;;;;;;6.32;2.30;;;14.40;60.90;;;;;;5003696;28;20192;-69
2021/05/06 11:04:07;;;;;;;11.27;1.98;;;14.20;61.00;;;;;;5005916;28;20196;-73
2021/05/06 11:06:40;;;;;;;4.80;1.75;;;13.90;61.30;;;;;;5006101;28;20231;-72
2021/05/06 11:09:42;;;;;;;3.33;1.73;;;13.80;62.50;;;;;;5005650;28;20231;-69
2021/05/06 11:12:29;;;;;;;5.72;1.92;;;13.50;61.50;;;;;;5001069;28;20196;-70
2021/05/06 11:15:26;;;;;;;4.88;1.75;;;13.10;61.40;;;;;;5007700;28;20272;-73
2021/05/06 11:17:53;;;;;;;4.75;1.33;;;13.20;61.70;;;;;;5011053;28;20437;-73
2021/05/06 11:20:50;;;;;;;3.67;1.75;;;13.20;61.40;;;;;;5007902;28;20192;-72
2021/05/06 11:23:27;;;;;;;3.22;1.95;;;13.60;62.40;;;;;;4998248;28;20211;-71
2021/05/06 11:26:08;;;;;;;4.68;1.35;;;13.90;61.70;;;;;;4994103;28;20233;-72
2021/05/06 11:28:42;;;;;;;4.93;1.67;;;13.80;59.90;;;;;;5003323;28;20259;-72
2021/05/06 11:31:10;;;;;;;2.85;1.38;;;13.30;62.10;;;;;;5009305;28;20206;-71
2021/05/06 11:33:36;;;;;;;4.60;1.38;;;13.10;62.50;;;;;;5004627;28;20235;-70
2021/05/06 11:36:09;;;;;;;3.50;1.70;;;13.20;64.40;;;;;;5005125;28;20216;-72
2021/05/06 11:39:00;;;;;;;3.08;1.60;;;13.70;62.60;;;;;;5004530;28;20317;-71
2021/05/06 11:41:30;;;;;;;4.75;1.83;;;14.10;62.20;;;;;;4979286;28;20201;-71
2021/05/06 11:43:58;;;;;;;3.45;1.63;;;14.50;62.20;;;;;;5002383;28;20220;-70
2021/05/06 11:46:27;;;;;;;6.75;1.75;;;14.40;58.60;;;;;;5006629;28;20325;-70
2021/05/06 11:48:57;;;;;;;5.15;1.92;;;14.00;60.40;;;;;;5016012;28;20262;-70
2021/05/06 11:51:29;;;;;;;2.63;2.17;;;13.70;62.90;;;;;;5005449;28;20312;-71
2021/05/06 11:54:09;;;;;;;4.97;1.58;;;13.40;64.60;;;;;;5002684;28;20217;-71
2021/05/06 11:56:38;;;;;;;3.55;2.10;;;13.20;64.70;;;;;;5003790;28;20454;-70
2021/05/06 11:59:06;;;;;;;4.05;1.80;;;12.90;63.30;;;;;;5003026;28;20249;-69
2021/05/06 12:01:33;;;;;;;4.60;1.60;;;13.00;63.60;;;;;;5005719;28;20195;-71
2021/05/06 12:03:59;;;;;;;4.13;1.73;;;13.00;63.20;;;;;;5004306;28;20250;-70
2021/05/06 12:06:28;;;;;;;4.07;1.60;;;13.30;63.10;;;;;;5005058;28;20242;-70
2021/05/06 12:08:55;;;;;;;2.35;1.20;;;13.40;64.20;;;;;;5003998;28;20192;-71
2021/05/06 12:11:33;;;;;;;2.47;1.77;;;13.30;63.40;;;;;;5004501;28;20230;-71
2021/05/06 12:14:00;;;;;;;4.65;2.15;;;13.50;64.90;;;;;;5005609;28;20219;-70
2021/05/06 12:16:27;;;;;;;4.20;2.08;;;13.60;63.10;;;;;;5009126;28;20234;-70
2021/05/06 12:18:59;;;;;;;4.03;1.60;;;13.60;64.10;;;;;;5007475;28;20206;-71
2021/05/06 12:21:34;;;;;;;2.63;1.63;;;13.60;65.40;;;;;;5009452;28;20196;-71
2021/05/06 12:24:01;;;;;;;2.72;1.60;;;13.60;65.70;;;;;;5009391;28;20434;-71
2021/05/06 12:26:28;;;;;;;4.78;1.30;;;13.50;66.20;;;;;;5008811;28;20281;-70
2021/05/06 12:28:55;;;;;;;2.85;1.48;;;13.10;66.40;;;;;;5015823;28;20206;-71
2021/05/06 12:31:23;;;;;;;3.20;1.63;;;13.00;67.30;;;;;;5005090;28;20358;-71
2021/05/06 12:33:50;;;;;;;4.05;2.00;;;13.10;68.30;;;;;;5004684;28;20468;-71
2021/05/06 12:36:17;;;;;;;4.80;2.20;;;13.10;67.00;;;;;;5014236;28;20300;-71
2021/05/06 12:38:45;;;;;;;3.47;1.40;;;13.20;66.70;;;;;;5004394;28;20274;-70
2021/05/06 12:41:13;;;;;;;4.50;1.90;;;13.10;68.10;;;;;;5001891;28;20264;-71
2021/05/06 12:43:52;;;;;;;4.22;2.63;;;13.10;69.00;;;;;;5007536;28;20325;-70
2021/05/06 12:46:25;;;;;;;4.15;1.45;;;13.10;70.10;;;;;;5011040;28;20286;-71
2021/05/06 12:48:54;;;;;;;3.65;1.70;;;13.20;69.40;;;;;;5011392;28;20452;-71
2021/05/06 12:51:30;;;;;;;2.00;1.30;;;13.00;68.30;;;;;;5010218;28;20191;-71
2021/05/06 12:54:06;;;;;;;3.53;1.80;;;12.90;68.40;;;;;;5002801;28;20236;-71
2021/05/06 12:56:36;;;;;;;3.72;2.08;;;13.00;68.40;;;;;;5008078;28;20228;-71
2021/05/06 12:59:24;;;;;;;5.00;1.60;;;12.90;66.70;;;;;;5011719;28;20194;-71
2021/05/06 13:01:51;;;;;;;3.97;1.10;;;12.90;67.20;;;;;;5013426;28;20279;-70
2021/05/06 13:04:18;;;;;;;4.70;1.50;;;13.10;67.60;;;;;;5007819;28;20259;-70
2021/05/06 13:06:46;;;;;;;1.80;1.42;;;13.00;67.70;;;;;;5007922;28;20294;-71
2021/05/06 13:09:14;;;;;;;2.38;1.10;;;12.70;68.80;;;;;;5009252;28;20191;-71
2021/05/06 13:11:42;;;;;;;3.50;1.58;;;12.30;69.90;;;;;;5013295;28;20190;-70
2021/05/06 13:14:09;;;;;;;2.13;1.23;;;12.20;70.30;;;;;;5005028;28;20222;-70
2021/05/06 13:16:39;;;;;;;2.90;1.50;;;12.10;72.70;;;;;;5012716;28;20219;-72
2021/05/06 13:19:06;;;;;;;3.92;1.90;;;11.90;75.00;;;;;;5010236;28;20456;-71
2021/05/06 13:21:35;;;;;;;2.97;2.10;;;11.80;79.20;;;;;;5007212;28;20194;-70
2021/05/06 13:24:04;;;;;;;6.20;2.38;;;11.30;86.60;;;;;;5008061;28;20280;-70
2021/05/06 13:26:32;;;;;;;4.78;2.60;;;10.70;92.90;;;;;;5006549;28;20428;-70
2021/05/06 13:29:03;;;;;;;5.43;3.70;;;10.40;95.90;;;;;;5007223;28;20546;-71
2021/05/06 13:31:33;;;;;;;4.75;3.45;;;10.20;98.60;;;;;;5006101;28;20435;-71
2021/05/06 13:34:17;;;;;;;4.78;2.95;;;9.90;99.90;;;;;;5005952;28;20241;-71
2021/05/06 13:36:46;;;;;;;7.03;4.35;;;10.00;99.90;;;;;;5006970;28;20221;-70
2021/05/06 13:39:14;;;;;;;5.90;4.60;;;9.70;99.90;;;;;;5006640;28;20228;-71
2021/05/06 13:41:43;;;;;;;6.85;3.55;;;9.20;99.90;;;;;;5007363;28;20269;-71
2021/05/06 13:44:10;;;;;;;5.75;4.75;;;9.00;99.90;;;;;;4998261;28;20296;-71
2021/05/06 13:46:46;;;;;;;4.25;3.85;;;9.10;99.90;;;;;;5011296;28;20275;-70
2021/05/06 13:49:14;;;;;;;3.67;3.38;;;9.10;99.90;;;;;;5005039;28;20359;-71
2021/05/06 13:51:40;;;;;;;4.97;4.03;;;9.20;99.90;;;;;;5013159;28;20220;-71
2021/05/06 13:54:07;;;;;;;4.15;3.38;;;9.40;99.90;;;;;;5006139;28;20217;-71
2021/05/06 13:56:34;;;;;;;2.88;2.67;;;9.30;99.90;;;;;;5001877;28;20312;-71
2021/05/06 13:59:01;;;;;;;6.15;3.15;;;9.20;99.90;;;;;;5006054;28;20188;-69
2021/05/06 14:01:28;;;;;;;4.55;3.17;;;9.10;99.90;;;;;;5006771;28;20250;-69
2021/05/06 14:03:54;;;;;;;3.97;3.10;;;9.30;99.90;;;;;;5004881;28;20209;-71
2021/05/06 14:06:22;;;;;;;3.47;3.03;;;9.30;99.90;;;;;;5008035;28;20341;-70
2021/05/06 14:08:49;;;;;;;3.28;2.88;;;9.60;99.90;;;;;;5004133;28;20276;-70
2021/05/06 14:11:16;;;;;;;5.25;3.38;;;9.80;99.90;;;;;;5005435;28;20479;-69
2021/05/06 14:13:43;;;;;;;4.85;3.97;;;10.00;99.90;;;;;;5003571;28;20268;-71
2021/05/06 14:16:12;;;;;;;3.72;2.95;;;10.00;99.90;;;;;;5005144;28;20280;-70
2021/05/06 14:18:39;;;;;;;4.80;2.55;;;10.10;99.90;;;;;;5006497;28;20263;-70
2021/05/06 14:21:10;;;;;;;4.78;3.78;;;10.30;99.90;;;;;;5011460;28;20456;-73
2021/05/06 14:23:41;;;;;;;4.97;3.17;;;10.50;99.90;;;;;;5006575;28;20196;-72
2021/05/06 14:31:41;;;;;;;5.82;3.17;;;10.80;99.10;;;;;;1465959;26;20548;-69
2021/05/06 14:34:08;;;;;;;3.78;2.70;;;10.60;98.90;;;;;;5015899;28;20752;-71
2021/05/06 14:36:35;;;;;;;4.85;3.53;;;10.60;99.90;;;;;;5025264;28;20309;-69
2021/05/06 14:39:05;;;;;;;5.18;3.40;;;10.40;99.60;;;;;;5020611;28;21829;-69
2021/05/06 14:41:31;;;;;;;3.80;2.65;;;10.40;98.20;;;;;;5008172;28;20203;-72
2021/05/06 14:44:00;;;;;;;3.97;2.47;;;10.60;98.10;;;;;;5019749;28;20204;-70
2021/05/06 14:46:27;;;;;;;4.68;2.63;;;10.70;96.80;;;;;;5015555;28;20212;-69
2021/05/06 14:48:54;;;;;;;6.68;2.60;;;10.70;95.50;;;;;;5010533;28;20360;-71
2021/05/06 14:51:22;;;;;;;4.13;2.13;;;10.70;95.80;;;;;;5009255;28;20653;-73
2021/05/06 14:53:48;;;;;;;4.05;2.50;;;10.80;95.50;;;;;;5012431;28;20216;-70
2021/05/06 14:56:16;;;;;;;4.85;2.03;;;10.90;94.70;;;;;;5011679;28;21598;-69
2021/05/06 14:58:42;;;;;;;2.72;2.38;;;11.10;94.20;;;;;;5011269;28;20284;-70
2021/05/06 15:01:09;;;;;;;4.82;2.50;;;11.30;94.20;;;;;;5012705;28;20375;-69
2021/05/06 15:03:36;;;;;;;5.55;2.90;;;11.20;93.80;;;;;;5011003;28;20286;-71
2021/05/06 15:06:03;;;;;;;4.95;2.38;;;11.10;93.90;;;;;;5011645;28;20309;-70
2021/05/06 15:08:30;;;;;;;4.72;2.85;;;10.90;94.50;;;;;;5014341;28;20207;-71
2021/05/06 15:10:58;;;;;;;4.57;2.80;;;10.90;95.10;;;;;;5009985;28;20284;-69
2021/05/06 15:13:26;;;;;;;3.97;2.05;;;10.90;94.70;;;;;;5012811;28;20227;-70
2021/05/06 15:15:53;;;;;;;5.22;3.17;;;11.20;93.70;;;;;;5020732;28;20225;-70
2021/05/06 15:18:20;;;;;;;2.67;1.95;;;11.40;93.60;;;;;;5018923;28;20204;-69
2021/05/06 15:20:46;;;;;;;3.63;2.58;;;11.60;93.20;;;;;;5016545;28;20235;-68
2021/05/06 15:23:13;;;;;;;3.70;2.10;;;11.70;92.90;;;;;;5020808;28;20192;-70
2021/05/06 15:25:40;;;;;;;3.20;2.30;;;11.90;93.00;;;;;;5014759;28;20251;-68
2021/05/06 15:28:07;;;;;;;3.00;2.20;;;11.70;91.10;;;;;;5010694;28;20200;-68
2021/05/06 15:30:35;;;;;;;2.30;2.10;;;11.90;91.70;;;;;;5018901;28;20666;-70
2021/05/06 15:33:03;;;;;;;3.22;2.35;;;12.00;91.40;;;;;;5014628;28;20208;-70
2021/05/06 15:35:29;;;;;;;3.78;2.60;;;12.10;90.30;;;;;;5012223;28;20300;-71
2021/05/06 15:37:57;;;;;;;4.95;1.92;;;12.00;89.60;;;;;;5016723;28;20314;-69
2021/05/06 15:40:24;;;;;;;7.88;2.47;;;12.00;89.40;;;;;;5015572;28;20285;-70
2021/05/06 15:42:52;;;;;;;2.40;2.20;;;12.20;88.30;;;;;;5012154;28;20267;-69